Terminal Aerodrome Forecast
Issued by NWS

Home | Current Version | Previous Version | Text Only | Print | Product List | Glossary On
Versions: 1 2 3 4 5 6 7 8 9 10 11 12 13 14 15 16 17 18 19 20 21 22 23 24 25 26 27 28 29 30 31 32 33 34 35 36 37 38 39 40
000
FTUS45 KGJT 021130
TAFRIL
TAF
KRIL 021130Z 0212/0312 33003KT P6SM VCFG FEW050 SCT070
      TEMPO 0213/0215 5SM BR SCT005
     FM021900 26008KT P6SM FEW070 SCT250
     FM030200 16003KT P6SM SKC=

USA.gov is the U.S. government's official web portal to all federal, state and local government web resources and services.